Time;durP1;ratioP1;P1;durP2;ratioP2;P2;SDS_P1;SDS_P2;PMS_P1;PMS_P2;Temp;Humidity;BMP_temperature;BMP_pressure;BME280_temperature;BME280_humidity;BME280_pressure;Samples;Min_cycle;Max_cycle;Signal;HPM_P1;HPM_P2
2022/09/18 00:01:30;;;;;;;1.65;0.40;;;18.70;99.80;;;;;;5053807;28;20087;-68
2022/09/18 00:04:00;;;;;;;1.17;0.40;;;18.90;99.90;;;;;;5052061;28;20059;-68
2022/09/18 00:06:30;;;;;;;1.10;0.43;;;18.90;99.00;;;;;;5053457;28;20025;-68
2022/09/18 00:08:59;;;;;;;1.85;0.35;;;18.90;99.90;;;;;;5053669;28;20029;-68
2022/09/18 00:11:29;;;;;;;2.20;0.40;;;19.20;99.90;;;;;;5053409;28;20508;-69
2022/09/18 00:13:56;;;;;;;0.80;0.40;;;19.40;99.90;;;;;;5051933;28;20098;-68
2022/09/18 00:16:25;;;;;;;2.38;0.30;;;19.30;98.90;;;;;;5053156;28;20032;-68
2022/09/18 00:18:53;;;;;;;1.65;0.43;;;19.10;99.00;;;;;;5052013;28;20025;-68
2022/09/18 00:21:23;;;;;;;1.25;0.30;;;19.00;99.20;;;;;;5053418;28;20028;-67
2022/09/18 00:23:53;;;;;;;1.10;0.47;;;19.10;99.90;;;;;;5053482;28;20052;-68
2022/09/18 00:26:21;;;;;;;1.30;0.40;;;19.20;99.90;;;;;;5053363;28;20036;-67
2022/09/18 00:28:48;;;;;;;0.70;0.30;;;19.50;98.60;;;;;;5053208;28;20032;-67
2022/09/18 00:31:26;;;;;;;2.17;0.40;;;19.30;98.40;;;;;;5053232;28;20074;-67
2022/09/18 00:33:55;;;;;;;2.17;0.63;;;19.30;98.50;;;;;;5053399;28;20021;-67
2022/09/18 00:36:22;;;;;;;1.15;0.25;;;19.50;98.40;;;;;;5052823;28;20477;-67
2022/09/18 00:38:50;;;;;;;1.48;0.30;;;19.70;98.80;;;;;;5051719;28;20025;-67
2022/09/18 00:41:24;;;;;;;1.35;0.40;;;19.60;98.10;;;;;;5053106;28;20025;-68
2022/09/18 00:44:15;;;;;;;1.08;0.30;;;19.70;98.80;;;;;;5051757;28;20025;-68
2022/09/18 00:46:44;;;;;;;2.78;0.30;;;19.80;98.80;;;;;;5053003;28;20158;-68
2022/09/18 00:49:21;;;;;;;2.03;0.40;;;19.90;98.30;;;;;;5053037;28;20382;-68
2022/09/18 00:51:52;;;;;;;1.08;0.30;;;19.70;98.30;;;;;;5052926;28;20025;-68
2022/09/18 00:54:30;;;;;;;;;;;19.90;98.10;;;;;;5053243;28;20064;-68
2022/09/18 00:57:02;;;;;;;2.67;0.40;;;20.10;98.30;;;;;;5052679;28;19913;-68
2022/09/18 00:59:35;;;;;;;2.50;0.30;;;20.40;99.30;;;;;;5053085;28;20488;-68
2022/09/18 01:02:03;;;;;;;1.05;0.30;;;20.00;96.90;;;;;;5053307;28;20082;-68
2022/09/18 01:04:31;;;;;;;1.02;0.32;;;19.80;97.40;;;;;;5053021;28;20052;-68
2022/09/18 01:07:28;;;;;;;2.42;0.60;;;20.10;98.20;;;;;;5052654;28;20025;-67
2022/09/18 01:10:02;;;;;;;2.08;0.50;;;20.30;97.20;;;;;;5052811;28;20021;-68
2022/09/18 01:12:33;;;;;;;2.20;0.52;;;20.10;97.70;;;;;;5052562;28;20037;-68
2022/09/18 01:15:12;;;;;;;1.33;0.32;;;20.20;97.50;;;;;;5052798;28;20025;-68
2022/09/18 01:17:45;;;;;;;1.77;0.40;;;21.00;98.10;;;;;;5056751;28;20036;-67
2022/09/18 01:20:48;;;;;;;1.85;0.50;;;20.80;96.50;;;;;;5057318;28;20014;-68
2022/09/18 01:23:24;;;;;;;2.35;0.40;;;20.90;97.00;;;;;;5056751;28;20012;-68
2022/09/18 01:26:10;;;;;;;2.00;0.40;;;21.10;96.60;;;;;;5057030;28;20021;-68
2022/09/18 01:28:54;;;;;;;0.82;0.47;;;20.70;95.70;;;;;;5056649;28;20468;-68
2022/09/18 01:31:33;;;;;;;0.77;0.30;;;20.80;95.90;;;;;;5055222;28;20029;-68
2022/09/18 01:34:12;;;;;;;0.98;0.20;;;20.90;96.00;;;;;;5055222;28;20032;-68
2022/09/18 01:36:44;;;;;;;0.90;0.30;;;21.20;96.20;;;;;;5056146;28;20021;-68
2022/09/18 01:39:22;;;;;;;0.93;0.28;;;21.40;95.70;;;;;;5056522;28;20013;-67
2022/09/18 01:41:51;;;;;;;0.95;0.35;;;21.40;94.80;;;;;;5056314;28;20071;-68
2022/09/18 01:44:28;;;;;;;1.45;0.25;;;21.40;95.20;;;;;;5054978;28;20025;-68
2022/09/18 01:46:58;;;;;;;1.45;0.50;;;21.40;94.50;;;;;;5055182;28;20033;-68
2022/09/18 01:49:31;;;;;;;1.55;0.43;;;21.60;95.00;;;;;;5056569;28;20380;-67
2022/09/18 01:52:11;;;;;;;0.82;0.20;;;21.70;95.10;;;;;;5056100;28;20024;-68
2022/09/18 01:54:42;;;;;;;1.60;0.60;;;22.00;95.30;;;;;;5056077;28;20040;-67
2022/09/18 01:57:34;;;;;;;1.42;0.40;;;22.30;95.30;;;;;;5055917;28;20500;-67
2022/09/18 02:00:09;;;;;;;2.75;0.50;;;22.20;94.10;;;;;;5056046;28;20039;-68
2022/09/18 02:02:50;;;;;;;1.20;0.45;;;21.90;94.40;;;;;;5055917;28;20025;-67
2022/09/18 02:05:44;;;;;;;1.50;0.30;;;21.80;93.60;;;;;;5055939;28;20017;-68
2022/09/18 02:08:21;;;;;;;1.85;0.52;;;21.80;94.10;;;;;;5055348;28;20107;-66
2022/09/18 02:11:02;;;;;;;0.85;0.28;;;21.80;94.30;;;;;;5055700;28;20357;-67
2022/09/18 02:13:53;;;;;;;1.67;0.38;;;22.10;94.50;;;;;;5055353;28;20041;-68
2022/09/18 02:16:41;;;;;;;1.13;0.43;;;22.20;93.90;;;;;;5055283;28;20112;-68
2022/09/18 02:19:24;;;;;;;1.88;0.45;;;22.20;93.60;;;;;;5055380;28;20025;-68
2022/09/18 02:21:52;;;;;;;2.60;0.50;;;22.50;93.80;;;;;;5055603;28;20366;-68
2022/09/18 02:24:23;;;;;;;1.38;0.57;;;22.90;94.40;;;;;;5055327;28;20381;-68
2022/09/18 02:26:52;;;;;;;2.40;0.40;;;22.70;94.00;;;;;;5055197;28;20094;-68
2022/09/18 02:29:22;;;;;;;0.75;0.30;;;22.90;94.10;;;;;;5053237;28;20032;-68
2022/09/18 02:31:50;;;;;;;1.17;0.22;;;22.60;93.00;;;;;;5055480;28;20037;-68
2022/09/18 02:34:18;;;;;;;0.70;0.30;;;22.40;93.60;;;;;;5055305;28;20040;-68
2022/09/18 02:36:46;;;;;;;2.67;0.30;;;22.50;92.70;;;;;;5055206;28;20025;-68
2022/09/18 02:39:37;;;;;;;1.45;0.30;;;22.50;93.40;;;;;;5055461;28;20083;-68
2022/09/18 02:42:27;;;;;;;1.90;0.30;;;22.90;93.80;;;;;;5055095;28;20045;-68
2022/09/18 02:45:32;;;;;;;0.85;0.30;;;23.40;92.80;;;;;;5055095;28;20481;-68
2022/09/18 02:48:24;;;;;;;0.95;0.20;;;23.30;91.00;;;;;;5052964;28;20031;-68
2022/09/18 02:51:06;;;;;;;1.00;0.30;;;22.70;90.90;;;;;;5053331;28;20029;-68
2022/09/18 02:53:45;;;;;;;1.30;0.40;;;22.70;92.30;;;;;;5053189;28;20021;-68
2022/09/18 02:56:28;;;;;;;1.45;0.32;;;22.70;92.20;;;;;;5054662;28;20025;-69
2022/09/18 02:59:10;;;;;;;2.42;0.52;;;23.20;92.40;;;;;;5055392;28;20049;-69
2022/09/18 03:01:40;;;;;;;3.20;0.68;;;23.10;91.00;;;;;;5053653;28;20116;-68
2022/09/18 03:04:14;;;;;;;1.30;0.40;;;23.20;93.00;;;;;;5053518;28;20032;-68
2022/09/18 03:06:41;;;;;;;2.78;0.47;;;23.60;91.10;;;;;;5054672;28;20435;-69
2022/09/18 03:09:08;;;;;;;0.63;0.30;;;23.30;91.10;;;;;;5054684;28;20017;-68
2022/09/18 03:11:36;;;;;;;0.90;0.30;;;23.40;91.20;;;;;;5052651;28;20032;-68
2022/09/18 03:14:04;;;;;;;1.65;0.45;;;23.10;91.20;;;;;;5053705;28;20124;-68
2022/09/18 03:16:31;;;;;;;0.95;0.38;;;23.50;91.50;;;;;;5054442;28;20036;-69
2022/09/18 03:18:58;;;;;;;1.25;0.40;;;23.20;90.60;;;;;;5054719;28;20028;-68
2022/09/18 03:21:26;;;;;;;0.95;0.57;;;23.20;91.70;;;;;;5054442;28;20366;-69
2022/09/18 03:23:54;;;;;;;1.85;0.50;;;23.70;91.10;;;;;;5054173;28;20013;-68
2022/09/18 03:26:21;;;;;;;0.80;0.32;;;23.60;89.80;;;;;;5054241;28;20476;-70
2022/09/18 03:28:49;;;;;;;2.38;0.50;;;23.30;90.50;;;;;;5054074;28;20100;-68
2022/09/18 03:31:16;;;;;;;0.98;0.20;;;23.20;90.10;;;;;;5054345;28;20021;-70
2022/09/18 03:33:44;;;;;;;1.83;0.60;;;23.40;88.50;;;;;;5054086;28;20024;-69
2022/09/18 03:36:11;;;;;;;2.08;0.30;;;23.50;89.80;;;;;;5053841;28;20111;-70
2022/09/18 03:38:39;;;;;;;1.30;0.35;;;23.90;87.60;;;;;;5053588;28;20092;-70
2022/09/18 03:41:07;;;;;;;1.05;0.40;;;23.90;90.00;;;;;;5053525;28;20444;-69
2022/09/18 03:43:35;;;;;;;0.88;0.30;;;23.90;87.50;;;;;;5053281;28;20508;-70
2022/09/18 03:46:02;;;;;;;2.13;0.40;;;24.00;87.60;;;;;;5052585;28;20025;-69
2022/09/18 03:48:29;;;;;;;1.75;0.50;;;23.80;86.40;;;;;;5053416;28;20025;-69
2022/09/18 03:50:57;;;;;;;1.27;0.30;;;23.40;86.90;;;;;;5053869;28;20079;-70
2022/09/18 03:53:24;;;;;;;2.67;0.45;;;23.60;88.40;;;;;;5052659;28;20031;-70
2022/09/18 03:55:52;;;;;;;1.20;0.40;;;23.90;88.30;;;;;;5053563;28;20020;-68
2022/09/18 03:58:19;;;;;;;3.22;0.80;;;24.00;87.40;;;;;;5053690;28;20017;-69
2022/09/18 04:00:46;;;;;;;1.73;0.50;;;24.00;87.30;;;;;;5053489;28;20017;-69
2022/09/18 04:03:14;;;;;;;1.65;0.30;;;24.20;88.80;;;;;;5053847;28;20056;-69
2022/09/18 04:05:41;;;;;;;3.45;0.60;;;24.40;85.80;;;;;;5053502;28;20088;-69
2022/09/18 04:08:08;;;;;;;1.50;0.50;;;24.10;87.50;;;;;;5053543;28;20021;-69
2022/09/18 04:10:36;;;;;;;2.25;0.68;;;23.80;86.50;;;;;;5053120;28;20021;-68
2022/09/18 04:13:03;;;;;;;3.53;0.47;;;23.60;86.80;;;;;;5053265;28;20039;-68
2022/09/18 04:15:32;;;;;;;1.80;0.40;;;23.80;87.00;;;;;;5053583;28;20373;-68
2022/09/18 04:18:05;;;;;;;1.65;0.25;;;24.10;86.50;;;;;;5053261;28;20394;-67
2022/09/18 04:20:33;;;;;;;2.58;0.30;;;24.00;87.90;;;;;;5053347;28;20021;-68
2022/09/18 04:23:00;;;;;;;1.05;0.40;;;23.80;85.80;;;;;;5053208;28;20021;-68
2022/09/18 04:25:28;;;;;;;1.73;0.47;;;23.70;86.40;;;;;;5051815;28;20025;-68
2022/09/18 04:27:56;;;;;;;0.90;0.22;;;23.90;85.80;;;;;;5052834;28;20017;-68
2022/09/18 04:30:23;;;;;;;1.70;0.52;;;23.80;85.80;;;;;;5053384;28;20021;-69
2022/09/18 04:32:51;;;;;;;2.45;0.43;;;23.70;86.20;;;;;;5052989;28;20032;-68
2022/09/18 04:35:18;;;;;;;1.70;0.40;;;23.80;84.50;;;;;;5051844;28;20108;-67
2022/09/18 04:37:45;;;;;;;1.70;0.43;;;23.90;87.30;;;;;;5053087;28;20025;-68
2022/09/18 04:40:13;;;;;;;0.68;0.40;;;23.70;85.80;;;;;;5053098;28;20049;-69
2022/09/18 04:42:40;;;;;;;0.88;0.30;;;23.80;85.10;;;;;;5053068;28;20397;-69
2022/09/18 04:45:09;;;;;;;2.28;0.50;;;23.70;85.20;;;;;;5053059;28;20028;-68
2022/09/18 04:47:36;;;;;;;0.80;0.30;;;23.40;83.90;;;;;;5053034;28;20028;-68
2022/09/18 04:50:07;;;;;;;1.90;0.50;;;23.60;85.40;;;;;;5052763;28;20029;-69
2022/09/18 04:52:35;;;;;;;3.90;0.60;;;23.80;86.50;;;;;;5052591;28;20027;-68
2022/09/18 04:55:02;;;;;;;0.98;0.30;;;23.60;84.40;;;;;;5053022;28;20397;-68
2022/09/18 04:57:30;;;;;;;1.83;0.32;;;23.60;84.00;;;;;;5052969;28;20021;-69
2022/09/18 04:59:57;;;;;;;2.40;0.60;;;23.30;84.20;;;;;;5053038;28;20500;-69
2022/09/18 05:02:24;;;;;;;2.63;0.40;;;23.10;83.40;;;;;;5052518;28;20109;-68
2022/09/18 05:04:52;;;;;;;1.52;0.52;;;23.10;85.00;;;;;;5052794;28;20049;-69
2022/09/18 05:07:20;;;;;;;1.30;0.30;;;23.20;85.40;;;;;;5052745;28;20079;-68
2022/09/18 05:09:47;;;;;;;1.20;0.30;;;23.30;86.70;;;;;;5052925;28;20115;-68
2022/09/18 05:12:14;;;;;;;1.02;0.38;;;23.40;84.40;;;;;;5052623;28;20040;-68
2022/09/18 05:14:42;;;;;;;1.58;0.40;;;23.60;84.40;;;;;;5053065;28;20060;-68
2022/09/18 05:17:09;;;;;;;1.60;0.45;;;23.40;83.30;;;;;;5052499;28;20037;-69
2022/09/18 05:19:36;;;;;;;1.27;0.40;;;23.30;83.70;;;;;;5052503;28;20096;-69
2022/09/18 05:22:04;;;;;;;1.88;0.30;;;23.20;83.10;;;;;;5052542;28;20430;-68
2022/09/18 05:24:31;;;;;;;1.05;0.40;;;23.20;85.10;;;;;;5052449;28;20028;-68
2022/09/18 05:26:58;;;;;;;0.88;0.38;;;23.20;83.60;;;;;;5052583;28;20056;-68
2022/09/18 05:29:25;;;;;;;1.20;0.40;;;23.00;84.30;;;;;;5052653;28;20017;-68
2022/09/18 05:31:53;;;;;;;1.02;0.38;;;23.10;84.20;;;;;;5052552;28;20147;-68
2022/09/18 05:34:20;;;;;;;1.55;0.30;;;22.90;83.50;;;;;;5052691;28;20115;-67
2022/09/18 05:36:47;;;;;;;0.93;0.30;;;22.90;83.00;;;;;;5052529;28;20017;-67
2022/09/18 05:39:15;;;;;;;1.58;0.35;;;22.70;83.00;;;;;;5052437;28;20025;-68
2022/09/18 05:41:42;;;;;;;3.72;0.50;;;22.70;82.90;;;;;;5052555;28;20028;-68
2022/09/18 05:44:09;;;;;;;2.17;0.45;;;22.70;85.00;;;;;;5051017;28;20036;-68
2022/09/18 05:46:37;;;;;;;2.05;0.55;;;22.70;84.20;;;;;;5052570;28;20053;-68
2022/09/18 05:49:05;;;;;;;3.00;0.50;;;22.70;83.70;;;;;;5052475;28;20116;-67
2022/09/18 05:51:32;;;;;;;1.70;0.40;;;22.70;84.20;;;;;;5052381;28;20039;-67
2022/09/18 05:54:00;;;;;;;1.25;0.40;;;22.50;84.00;;;;;;5052269;28;20025;-68
2022/09/18 05:56:27;;;;;;;0.93;0.43;;;22.40;84.50;;;;;;5052542;28;20394;-68
2022/09/18 05:58:55;;;;;;;1.48;0.55;;;22.20;85.20;;;;;;5052260;28;20021;-68
2022/09/18 06:01:23;;;;;;;1.13;0.40;;;22.30;85.00;;;;;;5052396;28;20473;-68
2022/09/18 06:03:50;;;;;;;1.90;0.43;;;22.30;85.80;;;;;;5055663;28;20028;-69
2022/09/18 06:06:18;;;;;;;1.65;0.73;;;22.30;84.80;;;;;;5055838;28;20481;-69
2022/09/18 06:08:45;;;;;;;1.42;0.40;;;22.20;84.20;;;;;;5055699;28;20450;-68
2022/09/18 06:11:12;;;;;;;2.60;0.70;;;22.20;83.70;;;;;;5055676;28;20025;-68
2022/09/18 06:13:40;;;;;;;3.00;0.60;;;22.00;84.80;;;;;;5055417;28;20412;-69
2022/09/18 06:16:07;;;;;;;4.47;0.98;;;22.00;84.90;;;;;;5055659;28;20074;-69
2022/09/18 06:18:34;;;;;;;1.65;0.30;;;22.10;85.70;;;;;;5055605;28;20059;-68
2022/09/18 06:21:02;;;;;;;1.83;0.50;;;22.00;84.30;;;;;;5054302;28;20017;-69
2022/09/18 06:23:29;;;;;;;1.17;0.32;;;22.00;85.30;;;;;;5055534;28;20017;-69
2022/09/18 06:26:02;;;;;;;2.58;0.60;;;21.90;86.90;;;;;;5055465;28;20108;-69
2022/09/18 06:28:31;;;;;;;2.47;0.50;;;21.80;86.70;;;;;;5055389;28;20021;-69
2022/09/18 06:30:59;;;;;;;2.05;0.60;;;21.90;86.30;;;;;;5055621;28;20025;-67
2022/09/18 06:33:30;;;;;;;1.63;0.50;;;21.80;86.70;;;;;;5055422;28;20039;-68
2022/09/18 06:35:59;;;;;;;3.00;0.50;;;21.70;88.00;;;;;;5055180;28;20033;-68
2022/09/18 06:38:27;;;;;;;1.67;0.40;;;21.70;88.00;;;;;;5055264;28;20485;-68
2022/09/18 06:40:54;;;;;;;0.95;0.60;;;21.60;86.90;;;;;;5054938;28;20473;-68
2022/09/18 06:43:22;;;;;;;2.60;0.52;;;21.50;86.40;;;;;;5055283;28;20067;-68
2022/09/18 06:45:54;;;;;;;1.52;0.40;;;21.50;86.60;;;;;;5054884;28;20033;-67
2022/09/18 06:48:22;;;;;;;1.80;0.30;;;21.40;87.50;;;;;;5053930;28;20032;-66
2022/09/18 06:50:58;;;;;;;1.23;0.52;;;21.20;87.10;;;;;;5052247;28;20021;-66
2022/09/18 06:53:26;;;;;;;1.63;0.60;;;21.00;87.40;;;;;;5053478;28;20023;-66
2022/09/18 06:55:57;;;;;;;2.13;0.40;;;21.00;88.30;;;;;;5053762;28;20033;-67
2022/09/18 06:58:25;;;;;;;2.20;0.40;;;20.90;88.70;;;;;;5054749;28;20104;-67
2022/09/18 07:00:52;;;;;;;2.25;0.80;;;20.90;89.40;;;;;;5054430;28;20024;-67
2022/09/18 07:03:20;;;;;;;1.70;0.38;;;20.90;88.70;;;;;;5054581;28;20017;-66
2022/09/18 07:05:47;;;;;;;1.63;0.45;;;20.80;88.20;;;;;;5054566;28;20064;-67
2022/09/18 07:08:14;;;;;;;1.98;0.52;;;20.80;88.90;;;;;;5054712;28;20491;-67
2022/09/18 07:10:41;;;;;;;1.38;0.40;;;20.70;88.10;;;;;;5054468;28;20023;-66
2022/09/18 07:13:09;;;;;;;2.13;0.50;;;20.90;88.20;;;;;;5054127;28;20127;-68
2022/09/18 07:15:37;;;;;;;2.10;0.70;;;20.60;87.90;;;;;;5052848;28;20025;-67
2022/09/18 07:18:06;;;;;;;1.55;0.52;;;20.50;88.50;;;;;;5054616;28;20484;-67
2022/09/18 07:20:34;;;;;;;2.97;0.97;;;20.30;91.20;;;;;;5054534;28;20028;-67
2022/09/18 07:23:02;;;;;;;2.33;0.60;;;20.20;91.80;;;;;;5054583;28;20020;-67
2022/09/18 07:25:33;;;;;;;2.40;0.60;;;20.10;91.50;;;;;;5054330;28;20039;-67
2022/09/18 07:28:09;;;;;;;;;;;20.00;91.30;;;;;;5054806;28;20017;-66
2022/09/18 07:30:39;;;;;;;2.40;0.70;;;19.90;91.20;;;;;;5054363;28;19998;-67
2022/09/18 07:33:09;;;;;;;1.45;0.47;;;19.90;91.20;;;;;;5054364;28;20031;-67
2022/09/18 07:35:36;;;;;;;1.20;0.30;;;19.80;91.50;;;;;;5052799;28;20048;-67
2022/09/18 07:38:06;;;;;;;2.17;0.50;;;19.70;91.20;;;;;;5054273;28;20491;-67
2022/09/18 07:40:34;;;;;;;3.55;0.70;;;19.60;91.50;;;;;;5054055;28;20017;-67
2022/09/18 07:43:03;;;;;;;1.58;0.40;;;19.50;91.60;;;;;;5054211;28;20017;-67
2022/09/18 07:45:31;;;;;;;1.77;0.53;;;19.50;91.50;;;;;;5052860;28;20043;-67
2022/09/18 07:48:02;;;;;;;2.13;0.60;;;19.40;91.50;;;;;;5054177;28;20341;-67
2022/09/18 07:50:29;;;;;;;2.20;0.50;;;19.30;91.70;;;;;;5054050;28;20025;-66
2022/09/18 07:52:58;;;;;;;1.90;0.73;;;19.30;91.70;;;;;;5053726;28;20111;-68
2022/09/18 07:55:27;;;;;;;1.23;0.57;;;19.20;91.80;;;;;;5053801;28;20061;-68
2022/09/18 07:57:59;;;;;;;1.15;0.50;;;19.20;91.70;;;;;;5053788;28;20070;-68
2022/09/18 08:00:29;;;;;;;2.97;0.82;;;19.20;91.80;;;;;;5053797;28;20017;-67
2022/09/18 08:03:02;;;;;;;2.08;0.55;;;19.20;91.90;;;;;;5053986;28;20422;-68
2022/09/18 08:05:30;;;;;;;3.28;0.50;;;19.10;91.20;;;;;;5053502;28;20025;-67
2022/09/18 08:08:03;;;;;;;2.25;0.50;;;19.10;91.20;;;;;;5053693;28;20437;-67
2022/09/18 08:10:30;;;;;;;1.17;0.45;;;19.00;91.30;;;;;;5053583;28;20370;-67
2022/09/18 08:12:57;;;;;;;1.17;0.60;;;18.90;91.50;;;;;;5051930;28;20138;-67
2022/09/18 08:15:25;;;;;;;1.42;0.60;;;18.90;91.40;;;;;;5053572;28;20032;-67
2022/09/18 08:17:52;;;;;;;1.67;0.82;;;18.80;90.30;;;;;;5053060;28;20424;-66
2022/09/18 08:20:20;;;;;;;2.22;0.75;;;18.80;90.50;;;;;;5053164;28;20476;-67
2022/09/18 08:22:48;;;;;;;1.10;0.68;;;18.70;91.00;;;;;;5053413;28;20380;-67
2022/09/18 08:25:15;;;;;;;2.38;0.60;;;18.60;90.60;;;;;;5053410;28;20017;-66
2022/09/18 08:27:43;;;;;;;2.72;0.70;;;18.60;90.70;;;;;;5053438;28;20199;-67
2022/09/18 08:30:13;;;;;;;2.53;0.85;;;18.60;90.70;;;;;;5053249;28;20032;-67
2022/09/18 08:32:40;;;;;;;2.67;0.90;;;18.50;90.90;;;;;;5053415;28;20060;-66
2022/09/18 08:35:09;;;;;;;2.97;0.80;;;18.40;91.20;;;;;;5052110;28;20029;-67
2022/09/18 08:37:37;;;;;;;1.85;0.60;;;18.40;91.20;;;;;;5051928;28;20385;-67
2022/09/18 08:40:07;;;;;;;2.60;0.60;;;18.40;91.20;;;;;;5052868;28;20024;-67
2022/09/18 08:43:22;;;;;;;4.20;1.05;;;18.30;91.20;;;;;;5053758;28;20021;-68
2022/09/18 08:46:04;;;;;;;3.00;0.93;;;18.20;91.60;;;;;;5049789;28;20480;-67
2022/09/18 08:48:37;;;;;;;2.08;0.70;;;18.20;91.70;;;;;;5052798;28;20136;-67
2022/09/18 08:51:13;;;;;;;1.77;0.70;;;18.10;91.50;;;;;;5053181;28;20025;-67
2022/09/18 08:53:46;;;;;;;1.45;0.77;;;18.10;91.40;;;;;;5052741;28;20156;-67
2022/09/18 08:56:21;;;;;;;3.88;0.60;;;18.20;91.10;;;;;;5052458;28;20021;-67
2022/09/18 08:59:17;;;;;;;2.78;0.88;;;18.10;91.20;;;;;;5053308;28;20044;-67
2022/09/18 09:02:07;;;;;;;1.75;0.52;;;18.20;91.10;;;;;;5052951;28;20436;-68
2022/09/18 09:04:35;;;;;;;2.08;0.70;;;18.20;91.40;;;;;;5053072;28;20021;-67
2022/09/18 09:07:18;;;;;;;2.22;0.50;;;;;;;;;;5052866;28;20036;-68
2022/09/18 09:10:03;;;;;;;1.98;0.68;;;;;;;;;;5052957;28;20021;-67
2022/09/18 09:12:33;;;;;;;2.28;0.50;;;;;;;;;;5052630;28;20104;-66
2022/09/18 09:15:07;;;;;;;0.93;0.40;;;;;;;;;;5051329;28;20493;-66
2022/09/18 09:17:49;;;;;;;2.33;0.82;;;;;;;;;;5050881;28;20032;-68
2022/09/18 09:20:24;;;;;;;1.73;0.55;;;;;;;;;;5049514;28;20071;-66
2022/09/18 09:22:52;;;;;;;2.38;0.73;;;;;;;;;;5050937;28;20013;-66
2022/09/18 09:25:22;;;;;;;3.00;0.80;;;;;;;;;;5050836;28;20024;-67
2022/09/18 09:27:58;;;;;;;2.63;0.70;;;;;;;;;;5050948;28;20025;-67
2022/09/18 09:30:26;;;;;;;1.67;0.40;;;;;;;;;;5052444;28;20025;-67
2022/09/18 09:33:15;;;;;;;1.25;0.50;;;;;;;;;;5052691;28;20108;-67
2022/09/18 09:35:54;;;;;;;2.92;0.77;;;;;;;;;;5052963;28;20366;-66
2022/09/18 09:38:21;;;;;;;1.90;0.40;;;17.90;95.20;;;;;;5055494;28;20104;-68
2022/09/18 09:40:53;;;;;;;1.20;0.50;;;17.80;92.30;;;;;;5056694;28;20021;-66
2022/09/18 09:43:38;;;;;;;4.18;0.80;;;;;;;;;;5055205;28;20504;-67
2022/09/18 09:46:18;;;;;;;2.75;0.60;;;;;;;;;;5056429;28;20027;-67
2022/09/18 09:49:18;;;;;;;1.85;0.50;;;;;;;;;;5056593;28;20079;-67
2022/09/18 09:52:03;;;;;;;2.33;0.50;;;;;;;;;;5055301;28;20040;-68
2022/09/18 09:54:31;;;;;;;1.77;0.63;;;;;;;;;;5056923;28;20025;-68
2022/09/18 09:56:58;;;;;;;2.38;0.60;;;;;;;;;;5056076;28;20021;-68
2022/09/18 09:59:31;;;;;;;2.45;0.43;;;;;;;;;;5055776;28;20032;-68
2022/09/18 10:02:04;;;;;;;1.85;0.50;;;;;;;;;;5054602;28;20150;-68
2022/09/18 10:04:48;;;;;;;2.33;0.70;;;;;;;;;;5054663;28;20028;-68
2022/09/18 10:07:21;;;;;;;2.28;0.70;;;;;;;;;;5056138;28;20435;-67
2022/09/18 10:09:52;;;;;;;1.50;0.65;;;;;;;;;;5056041;28;20440;-67
2022/09/18 10:12:28;;;;;;;1.95;0.50;;;;;;;;;;5055793;28;20072;-68
2022/09/18 10:15:07;;;;;;;2.67;0.60;;;;;;;;;;5056146;28;20037;-69
2022/09/18 10:17:36;;;;;;;1.95;0.80;;;;;;;;;;5054680;28;20477;-69
2022/09/18 10:20:05;;;;;;;2.25;0.60;;;;;;;;;;5055800;28;20040;-68
2022/09/18 10:22:34;;;;;;;2.17;0.82;;;;;;;;;;5054465;28;20370;-68
2022/09/18 10:25:07;;;;;;;0.85;0.50;;;;;;;;;;5054361;28;20025;-69
2022/09/18 10:27:34;;;;;;;2.80;0.77;;;;;;;;;;5055732;28;20431;-68
2022/09/18 10:30:07;;;;;;;2.78;0.50;;;;;;;;;;5055658;28;20029;-70
2022/09/18 10:32:36;;;;;;;1.77;0.57;;;;;;;;;;5055923;28;20067;-68
2022/09/18 10:35:23;;;;;;;2.30;0.60;;;;;;;;;;5054294;28;20457;-69
2022/09/18 10:37:50;;;;;;;2.20;0.55;;;;;;;;;;5055712;28;20037;-69
2022/09/18 10:40:39;;;;;;;3.03;0.60;;;;;;;;;;5054289;28;20097;-70
2022/09/18 10:43:17;;;;;;;2.13;0.50;;;;;;;;;;5055462;28;20021;-69
2022/09/18 10:45:51;;;;;;;2.55;0.70;;;;;;;;;;5055418;28;20029;-70
2022/09/18 10:48:26;;;;;;;2.03;0.60;;;;;;;;;;5054809;28;20037;-69
2022/09/18 10:51:00;;;;;;;1.83;0.98;;;;;;;;;;5055302;28;20020;-70
2022/09/18 10:53:41;;;;;;;2.15;0.80;;;;;;;;;;5055617;28;20103;-68
2022/09/18 10:56:07;;;;;;;;;;;;;;;;;;5055980;28;20384;-69
2022/09/18 10:58:35;;;;;;;2.72;0.70;;;;;;;;;;5055248;28;19912;-69
2022/09/18 11:01:03;;;;;;;2.40;0.60;;;;;;;;;;5055264;28;20096;-69
2022/09/18 11:03:39;;;;;;;2.72;0.70;;;;;;;;;;5055249;28;20384;-68
2022/09/18 11:06:18;;;;;;;2.60;0.70;;;;;;;;;;5054841;28;20477;-69
2022/09/18 11:08:48;;;;;;;2.83;0.70;;;;;;;;;;5055061;28;20021;-69
2022/09/18 11:11:29;;;;;;;1.17;0.50;;;;;;;;;;5054554;28;20025;-68
2022/09/18 11:14:00;;;;;;;2.10;0.90;;;;;;;;;;5054390;28;20045;-68
2022/09/18 11:16:32;;;;;;;1.88;0.60;;;;;;;;;;5053595;28;20485;-68
2022/09/18 11:19:08;;;;;;;1.33;0.50;;;;;;;;;;5053669;28;20021;-68
2022/09/18 11:21:41;;;;;;;2.58;0.75;;;;;;;;;;5054712;28;20476;-67
2022/09/18 11:24:16;;;;;;;1.13;0.43;;;;;;;;;;5054705;28;20025;-68
2022/09/18 11:26:49;;;;;;;2.80;0.60;;;;;;;;;;5053337;28;20029;-68
2022/09/18 11:29:29;;;;;;;3.63;0.60;;;;;;;;;;5054632;28;20432;-68
2022/09/18 11:32:15;;;;;;;1.48;0.32;;;;;;;;;;5054532;28;20081;-68
2022/09/18 11:34:49;;;;;;;1.25;0.50;;;;;;;;;;5053104;28;20032;-69
2022/09/18 11:37:24;;;;;;;3.28;0.52;;;;;;;;;;5054698;28;20035;-69
2022/09/18 11:39:54;;;;;;;1.77;0.68;;;;;;;;;;5053337;28;20021;-69
2022/09/18 11:42:21;;;;;;;1.10;0.40;;;;;;;;;;5054490;28;20473;-69
2022/09/18 11:44:48;;;;;;;2.15;0.50;;;;;;;;;;5052781;28;20025;-69
2022/09/18 11:47:15;;;;;;;1.23;0.47;;;;;;;;;;5054038;28;20116;-69
2022/09/18 11:49:45;;;;;;;1.40;0.57;;;;;;;;;;5054086;28;20027;-69
2022/09/18 11:52:18;;;;;;;2.33;0.50;;;;;;;;;;5054295;28;20055;-69
2022/09/18 11:54:45;;;;;;;3.33;0.52;;;;;;;;;;5053886;28;20036;-68
2022/09/18 11:57:39;;;;;;;1.95;0.60;;;;;;;;;;5053813;28;20127;-68
2022/09/18 12:00:10;;;;;;;2.05;0.40;;;;;;;;;;5053415;28;20443;-70
2022/09/18 12:02:45;;;;;;;3.22;0.40;;;;;;;;;;5054106;28;20032;-69
2022/09/18 12:05:27;;;;;;;1.05;0.50;;;;;;;;;;5052575;28;20553;-69
2022/09/18 12:08:01;;;;;;;2.97;0.60;;;;;;;;;;5052602;28;20021;-69
2022/09/18 12:10:38;;;;;;;2.15;0.73;;;;;;;;;;5054058;28;20032;-69
2022/09/18 12:13:15;;;;;;;2.78;0.55;;;;;;;;;;5053536;28;20041;-68
2022/09/18 12:15:44;;;;;;;2.78;0.47;;;;;;;;;;5053779;28;20525;-69
2022/09/18 12:18:25;;;;;;;2.28;0.50;;;;;;;;;;5053801;28;20025;-69
2022/09/18 12:20:58;;;;;;;2.35;0.55;;;;;;;;;;5052313;28;20393;-69
2022/09/18 12:23:27;;;;;;;1.52;0.40;;;;;;;;;;5053762;28;20052;-69
2022/09/18 12:26:03;;;;;;;1.27;0.40;;;;;;;;;;5053582;28;20013;-69
2022/09/18 12:28:38;;;;;;;1.80;0.40;;;;;;;;;;5053790;28;20021;-69
2022/09/18 12:31:11;;;;;;;1.77;0.40;;;;;;;;;;5053670;28;20384;-69
2022/09/18 12:33:44;;;;;;;1.58;0.47;;;;;;;;;;5053446;28;20088;-69
2022/09/18 12:36:11;;;;;;;2.08;0.52;;;;;;;;;;5053121;28;20024;-69
2022/09/18 12:38:56;;;;;;;2.05;0.57;;;;;;;;;;5052026;28;20021;-69
2022/09/18 12:41:35;;;;;;;1.40;0.68;;;;;;;;;;5053197;28;20045;-69
2022/09/18 12:44:18;;;;;;;1.55;0.32;;;;;;;;;;5053129;28;20021;-69
2022/09/18 12:46:55;;;;;;;2.83;0.52;;;;;;;;;;5053414;28;20099;-68
2022/09/18 12:49:35;;;;;;;2.10;0.50;;;;;;;;;;5053447;28;20449;-68
2022/09/18 12:52:12;;;;;;;2.20;0.47;;;;;;;;;;5052133;28;20025;-69
2022/09/18 12:54:39;;;;;;;1.45;0.60;;;;;;;;;;5053121;28;20021;-69
2022/09/18 12:57:06;;;;;;;2.80;0.70;;;;;;;;;;5053036;28;20024;-69
2022/09/18 12:59:40;;;;;;;1.35;0.35;;;;;;;;;;5053129;28;20435;-69
2022/09/18 13:02:07;;;;;;;2.67;0.60;;;;;;;;;;5051836;28;20028;-70
2022/09/18 13:04:39;;;;;;;2.42;0.60;;;;;;;;;;5051773;28;20021;-69
2022/09/18 13:07:26;;;;;;;2.13;0.50;;;;;;;;;;5052919;28;20100;-68
2022/09/18 13:09:57;;;;;;;2.17;0.70;;;;;;;;;;5052880;28;20032;-68
2022/09/18 13:12:41;;;;;;;3.35;0.60;;;;;;;;;;5054755;28;20064;-68
2022/09/18 13:15:20;;;;;;;1.73;0.50;;;;;;;;;;5055189;28;20032;-69
2022/09/18 13:17:51;;;;;;;2.05;0.43;;;;;;;;;;5053809;28;20052;-69
2022/09/18 13:20:25;;;;;;;2.78;0.70;;;;;;;;;;5055048;28;20120;-68
2022/09/18 13:22:53;;;;;;;2.47;0.77;;;;;;;;;;5053739;28;20049;-68
2022/09/18 13:25:42;;;;;;;2.78;0.85;;;;;;;;;;5055120;28;20024;-69
2022/09/18 13:28:12;;;;;;;2.08;0.65;;;;;;;;;;5055163;28;20029;-68
2022/09/18 13:30:39;;;;;;;2.45;0.93;;;;;;;;;;5056918;28;20021;-68
2022/09/18 13:33:20;;;;;;;3.75;0.70;;;;;;;;;;5056751;28;20025;-68
2022/09/18 13:35:52;;;;;;;1.58;0.50;;;;;;;;;;5056860;28;20025;-68
2022/09/18 13:38:21;;;;;;;3.25;0.90;;;;;;;;;;5055472;28;20025;-69
2022/09/18 13:40:58;;;;;;;3.65;1.15;;;12.90;99.90;;;;;;5056541;28;20025;-68
2022/09/18 13:43:28;;;;;;;3.05;0.90;;;12.90;99.90;;;;;;5055325;28;20025;-69
2022/09/18 13:45:57;;;;;;;2.45;0.50;;;12.80;99.90;;;;;;5055325;28;20048;-69
2022/09/18 13:48:39;;;;;;;2.60;0.60;;;12.80;99.90;;;;;;5056418;28;20025;-69
2022/09/18 13:51:29;;;;;;;2.92;0.85;;;12.70;99.90;;;;;;5056742;28;20116;-69